createdAt,value
2023-02-28T00:00:25.151Z,50.908157
2023-02-28T00:01:25.141Z,50.908123
2023-02-28T00:02:25.223Z,50.908066
2023-02-28T00:03:25.200Z,50.908096
2023-02-28T00:04:25.123Z,50.908119
2023-02-28T00:05:25.120Z,50.908127
2023-02-28T00:06:25.129Z,50.908161
2023-02-28T00:07:25.111Z,50.908180
2023-02-28T00:08:25.121Z,50.908123
2023-02-28T00:09:25.090Z,50.908180
2023-02-28T00:10:25.086Z,50.908176
2023-02-28T00:11:25.081Z,50.908207
2023-02-28T00:12:25.060Z,50.908169
2023-02-28T00:13:25.091Z,50.908165
2023-02-28T00:14:25.052Z,50.908188
2023-02-28T00:15:25.059Z,50.908176
2023-02-28T00:16:25.094Z,50.908180
2023-02-28T00:17:25.033Z,50.908165
2023-02-28T00:18:25.065Z,50.908150
2023-02-28T00:19:25.020Z,50.908150
2023-02-28T00:20:25.000Z,50.908146
2023-02-28T00:21:25.001Z,50.908161
2023-02-28T00:22:24.996Z,50.908157
2023-02-28T00:23:25.019Z,50.908115
2023-02-28T00:24:24.996Z,50.908138
2023-02-28T00:25:25.020Z,50.908138
2023-02-28T00:26:24.962Z,50.908150
2023-02-28T00:27:24.963Z,50.908108
2023-02-28T00:28:24.974Z,50.908150
2023-02-28T00:29:24.944Z,50.908199
2023-02-28T00:30:24.947Z,50.908199
2023-02-28T00:31:24.924Z,50.908199
2023-02-28T00:32:24.923Z,50.908211
2023-02-28T00:33:24.954Z,50.908199
2023-02-28T00:34:24.905Z,50.908123
2023-02-28T00:35:24.928Z,50.908119
2023-02-28T00:36:24.910Z,50.908123
2023-02-28T00:37:24.883Z,50.908154
2023-02-28T00:38:24.909Z,50.908154
2023-02-28T00:39:24.888Z,50.908154
2023-02-28T00:40:24.866Z,50.908154
2023-02-28T00:41:24.863Z,50.908249
2023-02-28T00:42:24.851Z,50.908157
2023-02-28T00:43:24.870Z,50.908157
2023-02-28T00:44:24.839Z,50.908188
2023-02-28T00:45:24.833Z,50.908211
2023-02-28T00:46:24.870Z,50.908203
2023-02-28T00:47:24.819Z,50.908150
2023-02-28T00:48:24.830Z,50.908146
2023-02-28T00:49:24.802Z,50.908180
2023-02-28T00:50:24.796Z,50.908203
2023-02-28T00:51:24.817Z,50.908119
2023-02-28T00:52:24.775Z,50.908123
2023-02-28T00:53:24.794Z,50.908138
2023-02-28T00:54:24.753Z,50.908157
2023-02-28T00:55:24.748Z,50.908169
2023-02-28T00:56:24.739Z,50.908150
2023-02-28T00:57:24.743Z,50.908150
2023-02-28T00:58:24.754Z,50.908150
2023-02-28T00:59:24.716Z,50.908237
2023-02-28T01:00:24.724Z,50.908180
2023-02-28T01:01:24.726Z,50.908180
2023-02-28T01:02:24.697Z,50.908066
2023-02-28T01:03:24.716Z,50.908031
2023-02-28T01:04:24.731Z,50.908066
2023-02-28T01:05:24.674Z,50.908047
2023-02-28T01:06:25.675Z,50.908092
2023-02-28T01:07:24.658Z,50.907921
2023-02-28T01:08:24.672Z,50.907921
2023-02-28T01:09:24.650Z,50.907921
2023-02-28T01:10:24.644Z,50.907921
2023-02-28T01:11:24.636Z,50.907921
2023-02-28T01:12:24.627Z,50.907921
2023-02-28T01:13:24.644Z,50.907921
2023-02-28T01:14:24.619Z,50.907921
2023-02-28T01:15:24.631Z,50.907921
2023-02-28T01:16:24.608Z,50.907921
2023-02-28T01:17:24.589Z,50.907921
2023-02-28T01:18:24.619Z,50.907921
2023-02-28T01:19:24.573Z,50.907921
2023-02-28T01:20:24.559Z,50.907921
2023-02-28T01:21:24.551Z,50.907921
2023-02-28T01:22:24.546Z,50.907921
2023-02-28T01:23:24.605Z,50.907921
2023-02-28T01:24:24.543Z,50.907921
2023-02-28T01:25:25.210Z,50.907921
2023-02-28T01:26:24.526Z,50.907921
2023-02-28T01:27:24.519Z,50.907921
2023-02-28T01:28:24.543Z,50.907921
2023-02-28T01:29:24.499Z,50.907921
2023-02-28T01:30:24.497Z,50.907921
2023-02-28T01:31:24.520Z,50.907921
2023-02-28T01:32:24.529Z,50.907921
2023-02-28T01:33:24.473Z,50.907921
2023-02-28T01:34:24.502Z,50.907921
2023-02-28T01:35:24.454Z,50.908104
2023-02-28T01:36:24.487Z,50.908104
2023-02-28T01:37:24.444Z,50.908104
2023-02-28T01:38:24.437Z,50.908104
2023-02-28T01:39:24.463Z,50.908104
2023-02-28T01:40:24.438Z,50.908131
2023-02-28T01:41:24.409Z,50.908131
2023-02-28T01:42:24.413Z,50.908131
2023-02-28T01:43:24.414Z,50.908085
2023-02-28T01:44:24.420Z,50.908085
2023-02-28T01:45:24.382Z,50.908085
2023-02-28T01:46:24.430Z,50.908085
2023-02-28T01:47:24.371Z,50.908066
2023-02-28T01:48:24.361Z,50.908043
2023-02-28T01:49:24.398Z,50.908123
2023-02-28T01:50:24.341Z,50.908134
2023-02-28T01:51:24.342Z,50.908134
2023-02-28T01:52:24.331Z,50.908100
2023-02-28T01:53:24.324Z,50.908100
2023-02-28T01:54:24.344Z,50.908092
2023-02-28T01:55:24.306Z,50.907948
2023-02-28T01:56:24.302Z,50.907944
2023-02-28T01:57:24.292Z,50.907944
2023-02-28T01:58:24.284Z,50.907944
2023-02-28T01:59:24.309Z,50.907856
2023-02-28T02:00:24.283Z,50.908119
2023-02-28T02:01:24.324Z,50.908146
2023-02-28T02:02:24.287Z,50.908100
2023-02-28T02:03:24.253Z,50.908051
2023-02-28T02:04:24.270Z,50.907970
2023-02-28T02:05:24.237Z,50.907970
2023-02-28T02:06:24.226Z,50.907970
2023-02-28T02:07:24.227Z,50.907970
2023-02-28T02:08:24.224Z,50.907970
2023-02-28T02:09:24.234Z,50.907970
2023-02-28T02:10:24.192Z,50.907970
2023-02-28T02:11:25.212Z,50.907970
2023-02-28T02:12:24.190Z,50.907970
2023-02-28T02:13:24.184Z,50.907970
2023-02-28T02:14:24.204Z,50.907970
2023-02-28T02:15:24.175Z,50.907970
2023-02-28T02:16:24.248Z,50.907970
2023-02-28T02:17:24.167Z,50.907970
2023-02-28T02:18:24.147Z,50.907970
2023-02-28T02:19:24.180Z,50.907970
2023-02-28T02:20:24.136Z,50.907970
2023-02-28T02:21:24.129Z,50.907970
2023-02-28T02:22:24.116Z,50.907970
2023-02-28T02:23:24.117Z,50.907970
2023-02-28T02:24:24.133Z,50.907970
2023-02-28T02:25:24.099Z,50.907970
2023-02-28T02:26:24.088Z,50.908073
2023-02-28T02:27:24.084Z,50.908123
2023-02-28T02:28:24.081Z,50.908104
2023-02-28T02:29:24.094Z,50.908100
2023-02-28T02:30:24.060Z,50.908154
2023-02-28T02:31:24.095Z,50.908134
2023-02-28T02:32:24.080Z,50.908176
2023-02-28T02:33:24.041Z,50.908173
2023-02-28T02:34:24.058Z,50.908173
2023-02-28T02:35:24.015Z,50.908188
2023-02-28T02:36:24.008Z,50.908173
2023-02-28T02:37:24.004Z,50.908146
2023-02-28T02:38:24.007Z,50.908134
2023-02-28T02:39:23.991Z,50.908096
2023-02-28T02:40:24.016Z,50.908146
2023-02-28T02:41:23.973Z,50.908142
2023-02-28T02:42:23.970Z,50.908104
2023-02-28T02:43:23.977Z,50.908142
2023-02-28T02:44:23.989Z,50.908142
2023-02-28T02:45:23.942Z,50.908142
2023-02-28T02:46:23.948Z,50.908161
2023-02-28T02:47:23.923Z,50.908192
2023-02-28T02:48:23.930Z,50.908173
2023-02-28T02:49:23.911Z,50.908218
2023-02-28T02:50:23.938Z,50.908218
2023-02-28T02:51:23.909Z,50.908218
2023-02-28T02:52:23.889Z,50.908241
2023-02-28T02:53:23.879Z,50.908241
2023-02-28T02:54:23.874Z,50.908241
2023-02-28T02:55:23.900Z,50.908241
2023-02-28T02:56:23.862Z,50.908180
2023-02-28T02:57:23.847Z,50.908180
2023-02-28T02:58:23.846Z,50.908180
2023-02-28T02:59:23.847Z,50.908180
2023-02-28T03:00:23.862Z,50.908180
2023-02-28T03:01:23.825Z,50.908180
2023-02-28T03:02:23.822Z,50.908180
2023-02-28T03:03:23.816Z,50.908180
2023-02-28T03:04:23.812Z,50.908180
2023-02-28T03:05:23.856Z,50.908180
2023-02-28T03:06:23.800Z,50.908180
2023-02-28T03:07:23.784Z,50.908180
2023-02-28T03:08:23.792Z,50.908180
2023-02-28T03:09:23.772Z,50.908180
2023-02-28T03:10:23.785Z,50.908180
2023-02-28T03:11:23.764Z,50.908180
2023-02-28T03:12:23.743Z,50.908180
2023-02-28T03:13:23.750Z,50.908180
2023-02-28T03:14:23.729Z,50.908180
2023-02-28T03:15:23.752Z,50.908180
2023-02-28T03:16:23.765Z,50.908180
2023-02-28T03:17:23.712Z,50.908180
2023-02-28T03:18:23.698Z,50.908180
2023-02-28T03:19:23.688Z,50.908180
2023-02-28T03:20:23.710Z,50.908180
2023-02-28T03:21:23.681Z,50.908180
2023-02-28T03:22:23.669Z,50.908180
2023-02-28T03:23:23.663Z,50.908180
2023-02-28T03:24:23.685Z,50.908203
2023-02-28T03:25:23.687Z,50.908146
2023-02-28T03:26:23.647Z,50.908154
2023-02-28T03:27:23.643Z,50.908154
2023-02-28T03:28:23.638Z,50.908154
2023-02-28T03:29:23.630Z,50.908195
2023-02-28T03:30:23.645Z,50.908207
2023-02-28T03:31:23.634Z,50.908207
2023-02-28T03:32:23.629Z,50.908207
2023-02-28T03:33:23.594Z,50.908207
2023-02-28T03:34:23.588Z,50.908108
2023-02-28T03:35:23.685Z,50.908100
2023-02-28T03:36:23.569Z,50.908100
2023-02-28T03:37:23.591Z,50.908100
2023-02-28T03:38:23.562Z,50.908081
2023-02-28T03:39:23.550Z,50.908077
2023-02-28T03:40:23.576Z,50.908077
2023-02-28T03:41:23.552Z,50.908100
2023-02-28T03:42:23.523Z,50.908085
2023-02-28T03:43:23.526Z,50.908085
2023-02-28T03:44:23.509Z,50.908085
2023-02-28T03:45:23.561Z,50.908184
2023-02-28T03:46:23.502Z,50.908203
2023-02-28T03:47:23.487Z,50.908203
2023-02-28T03:48:23.479Z,50.908203
2023-02-28T03:49:23.480Z,50.908203
2023-02-28T03:50:23.488Z,50.908203
2023-02-28T03:51:23.460Z,50.908203
2023-02-28T03:52:23.453Z,50.908203
2023-02-28T03:53:23.443Z,50.908203
2023-02-28T03:54:23.447Z,50.908203
2023-02-28T03:55:23.447Z,50.908203
2023-02-28T03:56:23.422Z,50.908203
2023-02-28T03:57:23.416Z,50.908203
2023-02-28T03:58:23.404Z,50.908203
2023-02-28T03:59:23.402Z,50.908203
2023-02-28T04:00:23.419Z,50.908203
2023-02-28T04:01:23.437Z,50.908154
2023-02-28T04:02:23.370Z,50.908154
2023-02-28T04:03:23.367Z,50.908154
2023-02-28T04:04:23.385Z,50.908154
2023-02-28T04:05:23.380Z,50.908154
2023-02-28T04:06:23.358Z,50.908154
2023-02-28T04:07:23.382Z,50.908154
2023-02-28T04:08:23.333Z,50.908154
2023-02-28T04:09:23.314Z,50.908134
2023-02-28T04:10:24.355Z,50.908134
2023-02-28T04:11:23.303Z,50.908375
2023-02-28T04:12:23.299Z,50.908234
2023-02-28T04:13:23.290Z,50.908234
2023-02-28T04:14:23.286Z,50.908234
2023-02-28T04:15:23.315Z,50.908157
2023-02-28T04:16:34.310Z,50.908207
2023-02-28T04:17:25.270Z,50.908211
2023-02-28T04:18:23.268Z,50.908184
2023-02-28T04:19:23.253Z,50.908192
2023-02-28T04:20:24.283Z,50.908180
2023-02-28T04:21:23.252Z,50.908180
2023-02-28T04:22:23.236Z,50.908180
2023-02-28T04:23:23.221Z,50.908089
2023-02-28T04:24:23.223Z,50.908104
2023-02-28T04:25:23.211Z,50.908104
2023-02-28T04:26:23.241Z,50.908104
2023-02-28T04:27:23.202Z,50.908436
2023-02-28T04:28:23.186Z,50.908436
2023-02-28T04:29:23.178Z,50.908432
2023-02-28T04:30:23.179Z,50.908470
2023-02-28T04:31:23.210Z,50.908340
2023-02-28T04:32:23.200Z,50.908661
2023-02-28T04:33:23.153Z,50.908703
2023-02-28T04:34:23.140Z,50.908703
2023-02-28T04:35:23.194Z,50.908703
2023-02-28T04:36:23.156Z,50.908703
2023-02-28T04:37:23.127Z,50.908703
2023-02-28T04:38:23.115Z,50.908703
2023-02-28T04:39:23.107Z,50.908703
2023-02-28T04:40:23.105Z,50.908703
2023-02-28T04:41:23.114Z,50.908703
2023-02-28T04:42:23.082Z,50.908703
2023-02-28T04:43:23.076Z,50.908703
2023-02-28T04:44:23.071Z,50.908703
2023-02-28T04:45:23.061Z,50.908703
2023-02-28T04:46:23.090Z,50.908703
2023-02-28T04:47:23.082Z,50.908703
2023-02-28T04:48:23.039Z,50.908703
2023-02-28T04:49:23.046Z,50.908703
2023-02-28T04:50:23.024Z,50.908703
2023-02-28T04:51:23.060Z,50.908703
2023-02-28T04:52:23.022Z,50.908703
2023-02-28T04:53:22.998Z,50.908703
2023-02-28T04:54:22.996Z,50.908703
2023-02-28T04:55:23.002Z,50.908703
2023-02-28T04:56:23.012Z,50.908703
2023-02-28T04:57:22.990Z,50.908703
2023-02-28T04:58:22.973Z,50.908703
2023-02-28T04:59:22.959Z,50.908703
2023-02-28T05:00:22.949Z,50.908703
2023-02-28T05:01:22.970Z,50.908703
2023-02-28T05:02:23.022Z,50.908703
2023-02-28T05:03:22.928Z,50.908703
2023-02-28T05:04:22.990Z,50.908703
2023-02-28T05:05:22.936Z,50.908134
2023-02-28T05:06:22.936Z,50.908108
2023-02-28T05:07:22.897Z,50.908123
2023-02-28T05:08:22.900Z,50.908131
2023-02-28T05:09:22.879Z,50.908092
2023-02-28T05:10:22.880Z,50.908123
2023-02-28T05:11:22.900Z,50.908123
2023-02-28T05:12:22.856Z,50.908104
2023-02-28T05:13:22.851Z,50.908073
2023-02-28T05:14:22.851Z,50.908104
2023-02-28T05:15:22.848Z,50.908131
2023-02-28T05:16:22.922Z,50.908089
2023-02-28T05:17:23.829Z,50.908089
2023-02-28T05:18:22.855Z,50.908138
2023-02-28T05:19:22.805Z,50.908112
2023-02-28T05:20:22.803Z,50.908081
2023-02-28T05:21:22.837Z,50.908092
2023-02-28T05:22:22.788Z,50.908112
2023-02-28T05:23:22.774Z,50.908047
2023-02-28T05:24:22.833Z,50.908058
2023-02-28T05:25:22.769Z,50.908085
2023-02-28T05:26:22.799Z,50.908127
2023-02-28T05:27:22.751Z,50.908150
2023-02-28T05:28:22.739Z,50.908150
2023-02-28T05:29:22.742Z,50.908154
2023-02-28T05:30:22.737Z,50.908173
2023-02-28T05:31:22.759Z,50.908127
2023-02-28T05:32:22.790Z,50.908119
2023-02-28T05:33:22.752Z,50.908142
2023-02-28T05:34:22.699Z,50.908131
2023-02-28T05:35:22.777Z,50.908131
2023-02-28T05:36:22.719Z,50.908119
2023-02-28T05:37:22.826Z,50.908115
2023-02-28T05:38:23.676Z,50.908096
2023-02-28T05:39:22.656Z,50.908131
2023-02-28T05:40:22.660Z,50.908146
2023-02-28T05:41:22.651Z,50.908123
2023-02-28T05:42:22.674Z,50.908127
2023-02-28T05:43:22.638Z,50.908131
2023-02-28T05:44:22.629Z,50.908131
2023-02-28T05:45:22.625Z,50.908131
2023-02-28T05:46:22.624Z,50.908161
2023-02-28T05:47:22.641Z,50.908154
2023-02-28T05:48:22.646Z,50.908184
2023-02-28T05:49:22.586Z,50.908173
2023-02-28T05:50:22.585Z,50.908142
2023-02-28T05:51:22.575Z,50.908154
2023-02-28T05:52:22.590Z,50.908154
2023-02-28T05:53:22.565Z,50.908154
2023-02-28T05:54:22.553Z,50.908154
2023-02-28T05:55:22.545Z,50.908154
2023-02-28T05:56:22.545Z,50.908154
2023-02-28T05:57:24.677Z,50.908127
2023-02-28T05:58:23.524Z,50.908100
2023-02-28T05:59:22.516Z,50.908073
2023-02-28T06:00:22.508Z,50.908104
2023-02-28T06:01:22.502Z,50.908115
2023-02-28T06:02:22.565Z,50.908146
2023-02-28T06:03:22.553Z,50.908096
2023-02-28T06:04:31.626Z,50.908100
2023-02-28T06:05:24.474Z,50.908119
2023-02-28T06:06:22.470Z,50.908119
2023-02-28T06:07:22.481Z,50.908054
2023-02-28T06:08:22.468Z,50.908066
2023-02-28T06:09:22.444Z,50.908062
2023-02-28T06:10:22.457Z,50.908054
2023-02-28T06:11:22.436Z,50.908077
2023-02-28T06:12:22.450Z,50.908077
2023-02-28T06:13:22.416Z,50.908150
2023-02-28T06:14:22.412Z,50.908154
2023-02-28T06:15:22.401Z,50.908089
2023-02-28T06:16:22.460Z,50.908043
2023-02-28T06:17:22.530Z,50.908012
2023-02-28T06:18:22.386Z,50.908104
2023-02-28T06:19:22.373Z,50.908176
2023-02-28T06:20:22.365Z,50.908119
2023-02-28T06:21:22.356Z,50.908062
2023-02-28T06:22:22.373Z,50.908123
2023-02-28T06:23:22.346Z,50.908180
2023-02-28T06:24:22.339Z,50.908150
2023-02-28T06:25:22.356Z,50.908142
2023-02-28T06:26:22.328Z,50.908173
2023-02-28T06:27:22.341Z,50.908150
2023-02-28T06:28:22.304Z,50.908119
2023-02-28T06:29:22.299Z,50.908131
2023-02-28T06:30:22.291Z,50.908165
2023-02-28T06:31:22.336Z,50.908165
2023-02-28T06:32:23.332Z,50.908096
2023-02-28T06:33:22.278Z,50.908096
2023-02-28T06:34:22.264Z,50.908096
2023-02-28T06:35:22.362Z,50.908127
2023-02-28T06:36:22.249Z,50.908127
2023-02-28T06:37:22.270Z,50.908134
2023-02-28T06:38:22.238Z,50.908154
2023-02-28T06:39:22.240Z,50.908157
2023-02-28T06:40:22.224Z,50.908176
2023-02-28T06:41:22.215Z,50.908173
2023-02-28T06:42:22.235Z,50.908203
2023-02-28T06:43:22.205Z,50.908161
2023-02-28T06:44:22.203Z,50.908157
2023-02-28T06:45:22.187Z,50.908161
2023-02-28T06:46:22.371Z,50.908157
2023-02-28T06:47:22.194Z,50.908085
2023-02-28T06:48:22.181Z,50.908150
2023-02-28T06:49:22.164Z,50.908108
2023-02-28T06:50:22.147Z,50.908115
2023-02-28T06:51:22.139Z,50.908073
2023-02-28T06:52:22.191Z,50.908073
2023-02-28T06:53:22.125Z,50.908073
2023-02-28T06:54:22.117Z,50.908073
2023-02-28T06:55:22.105Z,50.908073
2023-02-28T06:56:22.129Z,50.908073
2023-02-28T06:57:22.127Z,50.908108
2023-02-28T06:58:22.089Z,50.908077
2023-02-28T06:59:22.094Z,50.908077
2023-02-28T07:00:22.078Z,50.908077
2023-02-28T07:01:22.084Z,50.908077
2023-02-28T07:02:22.068Z,50.908077
2023-02-28T07:03:22.075Z,50.908077
2023-02-28T07:04:22.136Z,50.908077
2023-02-28T07:05:22.037Z,50.908077
2023-02-28T07:06:22.025Z,50.908077
2023-02-28T07:07:22.019Z,50.908077
2023-02-28T07:08:22.033Z,50.908123
2023-02-28T07:09:22.000Z,50.908154
2023-02-28T07:10:21.999Z,50.908146
2023-02-28T07:11:21.997Z,50.908104
2023-02-28T07:12:21.982Z,50.908058
2023-02-28T07:13:22.001Z,50.908165
2023-02-28T07:14:21.977Z,50.908138
2023-02-28T07:15:21.951Z,50.908230
2023-02-28T07:16:21.979Z,50.908211
2023-02-28T07:17:21.941Z,50.908165
2023-02-28T07:18:21.956Z,50.908157
2023-02-28T07:19:21.920Z,50.908123
2023-02-28T07:20:21.920Z,50.908123
2023-02-28T07:21:21.915Z,50.908123
2023-02-28T07:22:21.912Z,50.908123
2023-02-28T07:23:21.922Z,50.908123
2023-02-28T07:24:21.895Z,50.908104
2023-02-28T07:25:21.883Z,50.908047
2023-02-28T07:26:21.869Z,50.908047
2023-02-28T07:27:21.864Z,50.908047
2023-02-28T07:28:21.887Z,50.908047
2023-02-28T07:29:21.836Z,50.908138
2023-02-28T07:30:22.844Z,50.908115
2023-02-28T07:31:21.866Z,50.908104
2023-02-28T07:32:21.845Z,50.908054
2023-02-28T07:33:21.927Z,50.908066
2023-02-28T07:34:21.816Z,50.908134
2023-02-28T07:35:21.798Z,50.908123
2023-02-28T07:36:21.787Z,50.908100
2023-02-28T07:37:21.784Z,50.908138
2023-02-28T07:38:21.805Z,50.908131
2023-02-28T07:39:21.768Z,50.908123
2023-02-28T07:40:21.755Z,50.908154
2023-02-28T07:41:21.767Z,50.908192
2023-02-28T07:42:21.748Z,50.908184
2023-02-28T07:43:21.763Z,50.908134
2023-02-28T07:44:21.726Z,50.908146
2023-02-28T07:45:21.725Z,50.908146
2023-02-28T07:46:21.719Z,50.908157
2023-02-28T07:47:23.176Z,50.908157
2023-02-28T07:48:21.737Z,50.908180
2023-02-28T07:49:21.699Z,50.908154
2023-02-28T07:50:21.688Z,50.908180
2023-02-28T07:51:21.678Z,50.908138
2023-02-28T07:52:21.668Z,50.908127
2023-02-28T07:53:21.691Z,50.908115
2023-02-28T07:54:21.665Z,50.908100
2023-02-28T07:55:21.648Z,50.908092
2023-02-28T07:56:21.637Z,50.908112
2023-02-28T07:57:21.634Z,50.908081
2023-02-28T07:58:21.647Z,50.908058
2023-02-28T07:59:21.618Z,50.908062
2023-02-28T08:00:21.636Z,50.908108
2023-02-28T08:01:21.671Z,50.908112
2023-02-28T08:02:21.595Z,50.908089
2023-02-28T08:03:21.614Z,50.908127
2023-02-28T08:04:21.586Z,50.908112
2023-02-28T08:05:22.377Z,50.908134
2023-02-28T08:06:22.562Z,50.908119
2023-02-28T08:07:21.553Z,50.908073
2023-02-28T08:08:21.565Z,50.908112
2023-02-28T08:09:21.538Z,50.908134
2023-02-28T08:10:21.527Z,50.908146
2023-02-28T08:11:21.536Z,50.908131
2023-02-28T08:12:21.515Z,50.908146
2023-02-28T08:13:21.542Z,50.908138
2023-02-28T08:14:21.495Z,50.908131
2023-02-28T08:15:21.489Z,50.908127
2023-02-28T08:16:21.560Z,50.908138
2023-02-28T08:17:21.507Z,50.908154
2023-02-28T08:18:21.494Z,50.908199
2023-02-28T08:19:21.456Z,50.908134
2023-02-28T08:20:21.460Z,50.908146
2023-02-28T08:21:21.479Z,50.908134
2023-02-28T08:22:22.430Z,50.908146
2023-02-28T08:23:21.455Z,50.908134
2023-02-28T08:24:21.418Z,50.908100
2023-02-28T08:25:21.408Z,50.908096
2023-02-28T08:26:21.410Z,50.908146
2023-02-28T08:27:21.392Z,50.908131
2023-02-28T08:28:21.382Z,50.908134
2023-02-28T08:29:21.403Z,50.908142
2023-02-28T08:30:21.379Z,50.908150
2023-02-28T08:31:21.476Z,50.908150
2023-02-28T08:32:29.734Z,50.908131
2023-02-28T08:33:23.372Z,50.908131
2023-02-28T08:34:21.339Z,50.908157
2023-02-28T08:35:21.326Z,50.908157
2023-02-28T08:36:21.360Z,50.908134
2023-02-28T08:37:21.308Z,50.908150
2023-02-28T08:38:21.311Z,50.908150
2023-02-28T08:39:21.321Z,50.908146
2023-02-28T08:40:21.293Z,50.908089
2023-02-28T08:41:21.288Z,50.908100
2023-02-28T08:42:21.267Z,50.908089
2023-02-28T08:43:22.267Z,50.908077
2023-02-28T08:44:21.295Z,50.908096
2023-02-28T08:45:21.249Z,50.908047
2023-02-28T08:46:21.261Z,50.908142
2023-02-28T08:47:21.243Z,50.908146
2023-02-28T08:48:21.236Z,50.908127
2023-02-28T08:49:21.247Z,50.908108
2023-02-28T08:50:21.220Z,50.908073
2023-02-28T08:51:21.203Z,50.908131
2023-02-28T08:52:21.193Z,50.908161
2023-02-28T08:53:21.197Z,50.908150
2023-02-28T08:54:21.218Z,50.908138
2023-02-28T08:55:21.171Z,50.908138
2023-02-28T08:56:21.167Z,50.908112
2023-02-28T08:57:21.189Z,50.908104
2023-02-28T08:58:21.144Z,50.908169
2023-02-28T08:59:21.171Z,50.908146
2023-02-28T09:00:21.133Z,50.908138
2023-02-28T09:01:21.202Z,50.908142
2023-02-28T09:02:21.115Z,50.908154
2023-02-28T09:03:23.172Z,50.908173
2023-02-28T09:04:21.250Z,50.908203
2023-02-28T09:05:21.094Z,50.908165
2023-02-28T09:06:21.083Z,50.908142
2023-02-28T09:07:21.089Z,50.908134
2023-02-28T09:08:21.079Z,50.908146
2023-02-28T09:09:21.096Z,50.908092
2023-02-28T09:10:21.058Z,50.908085
2023-02-28T09:11:21.045Z,50.908157
2023-02-28T09:12:21.039Z,50.908119
2023-02-28T09:13:21.034Z,50.908134
2023-02-28T09:14:21.055Z,50.908169
2023-02-28T09:15:21.015Z,50.908230
2023-02-28T09:16:21.021Z,50.908199
2023-02-28T09:17:20.998Z,50.908195
2023-02-28T09:18:20.994Z,50.908165
2023-02-28T09:19:21.016Z,50.908100
2023-02-28T09:20:20.981Z,50.908146
2023-02-28T09:21:20.972Z,50.908127
2023-02-28T09:22:20.965Z,50.908329
2023-02-28T09:23:20.955Z,50.908352
2023-02-28T09:24:20.975Z,50.908241
2023-02-28T09:25:20.941Z,50.908165
2023-02-28T09:26:20.932Z,50.908157
2023-02-28T09:27:20.928Z,50.908188
2023-02-28T09:28:20.922Z,50.908192
2023-02-28T09:29:20.940Z,50.908192
2023-02-28T09:30:20.928Z,50.908180
2023-02-28T09:31:20.954Z,50.908127
2023-02-28T09:32:20.950Z,50.908184
2023-02-28T09:33:20.882Z,50.908184
2023-02-28T09:34:20.913Z,50.908184
2023-02-28T09:35:20.863Z,50.908184
2023-02-28T09:36:21.137Z,50.908249
2023-02-28T09:37:20.848Z,50.908249
2023-02-28T09:38:20.892Z,50.908249
2023-02-28T09:39:20.854Z,50.908249
2023-02-28T09:40:20.826Z,50.908249
2023-02-28T09:41:20.810Z,50.908249
2023-02-28T09:42:20.804Z,50.908287
2023-02-28T09:43:20.811Z,50.908287
2023-02-28T09:44:20.825Z,50.908192
2023-02-28T09:45:20.797Z,50.908188
2023-02-28T09:46:20.831Z,50.908264
2023-02-28T09:47:20.777Z,50.908230
2023-02-28T09:48:20.757Z,50.908279
2023-02-28T09:49:20.779Z,50.908184
2023-02-28T09:50:20.745Z,50.908249
2023-02-28T09:51:20.740Z,50.908283
2023-02-28T09:52:20.807Z,50.908291
2023-02-28T09:53:20.728Z,50.908306
2023-02-28T09:54:20.761Z,50.908276
2023-02-28T09:55:20.713Z,50.908131
2023-02-28T09:56:20.709Z,50.907955
2023-02-28T09:57:20.699Z,50.906399
2023-02-28T09:58:20.716Z,50.907177
2023-02-28T09:59:20.907Z,50.907837
2023-02-28T10:00:20.679Z,50.907406
2023-02-28T10:01:20.698Z,50.907516
2023-02-28T10:02:20.659Z,50.907993
2023-02-28T10:03:20.651Z,50.908096
2023-02-28T10:04:20.723Z,50.908142
2023-02-28T10:05:20.657Z,50.908085
2023-02-28T10:06:20.657Z,50.908165
2023-02-28T10:07:20.719Z,50.908199
2023-02-28T10:08:20.611Z,50.908222
2023-02-28T10:09:20.614Z,50.908165
2023-02-28T10:10:20.627Z,50.908199
2023-02-28T10:11:20.589Z,50.908245
2023-02-28T10:12:20.582Z,50.908436
2023-02-28T10:13:20.573Z,50.908867
2023-02-28T10:14:20.562Z,50.908253
2023-02-28T10:15:20.580Z,50.908112
2023-02-28T10:16:20.534Z,50.908009
2023-02-28T10:17:20.532Z,50.908031
2023-02-28T10:18:20.530Z,50.908150
2023-02-28T10:19:20.526Z,50.908180
2023-02-28T10:20:20.530Z,50.908142
2023-02-28T10:21:21.498Z,50.908165
2023-02-28T10:22:20.497Z,50.908165
2023-02-28T10:23:20.492Z,50.908150
2023-02-28T10:24:20.489Z,50.908150
2023-02-28T10:25:20.496Z,50.908131
2023-02-28T10:26:20.470Z,50.908192
2023-02-28T10:27:20.461Z,50.908291
2023-02-28T10:28:20.457Z,50.908348
2023-02-28T10:29:20.440Z,50.908207
2023-02-28T10:30:20.532Z,50.908207
2023-02-28T10:31:20.491Z,50.908180
2023-02-28T10:32:20.499Z,50.908150
2023-02-28T10:33:21.483Z,50.908134
2023-02-28T10:34:20.408Z,50.908138
2023-02-28T10:35:20.446Z,50.908154
2023-02-28T10:36:20.486Z,50.908146
2023-02-28T10:37:20.398Z,50.908192
2023-02-28T10:38:20.370Z,50.908237
2023-02-28T10:39:20.369Z,50.908226
2023-02-28T10:40:20.412Z,50.908173
2023-02-28T10:41:20.377Z,50.908150
2023-02-28T10:42:20.338Z,50.908169
2023-02-28T10:43:20.334Z,50.908184
2023-02-28T10:44:20.329Z,50.908161
2023-02-28T10:45:20.346Z,50.908108
2023-02-28T10:46:20.395Z,50.908123
2023-02-28T10:47:20.305Z,50.908104
2023-02-28T10:48:20.295Z,50.908157
2023-02-28T10:49:20.297Z,50.908123
2023-02-28T10:50:20.320Z,50.908131
2023-02-28T10:51:20.271Z,50.908104
2023-02-28T10:52:20.262Z,50.908089
2023-02-28T10:53:20.254Z,50.908112
2023-02-28T10:54:20.257Z,50.908134
2023-02-28T10:55:20.266Z,50.908123
2023-02-28T10:56:20.243Z,50.908146
2023-02-28T10:57:20.240Z,50.908184
2023-02-28T10:58:20.218Z,50.908146
2023-02-28T10:59:20.213Z,50.908123
2023-02-28T11:00:20.247Z,50.908157
2023-02-28T11:01:20.195Z,50.908161
2023-02-28T11:02:20.193Z,50.908115
2023-02-28T11:03:20.179Z,50.908138
2023-02-28T11:04:52.206Z,50.908188
2023-02-28T11:05:20.162Z,50.908188
2023-02-28T11:06:20.160Z,50.908134
2023-02-28T11:07:22.101Z,50.908123
2023-02-28T11:08:20.148Z,50.908096
2023-02-28T11:09:20.133Z,50.908123
2023-02-28T11:10:20.163Z,50.908176
2023-02-28T11:11:20.189Z,50.908154
2023-02-28T11:12:20.123Z,50.908112
2023-02-28T11:13:20.109Z,50.908154
2023-02-28T11:14:20.093Z,50.908131
2023-02-28T11:15:20.129Z,50.908115
2023-02-28T11:16:20.110Z,50.908161
2023-02-28T11:17:20.058Z,50.908146
2023-02-28T11:18:20.170Z,50.908142
2023-02-28T11:19:20.064Z,50.908165
2023-02-28T11:20:20.071Z,50.908089
2023-02-28T11:21:20.028Z,50.908108
2023-02-28T11:22:20.023Z,50.908096
2023-02-28T11:23:20.016Z,50.908142
2023-02-28T11:24:20.008Z,50.908150